createdAt,value
2023-01-21T00:02:22.539Z,0.23
2023-01-21T00:04:51.537Z,0.17
2023-01-21T00:07:20.200Z,0.25
2023-01-21T00:09:48.811Z,0.36
2023-01-21T00:12:18.803Z,0.32
2023-01-21T00:14:47.417Z,0.25
2023-01-21T00:17:16.223Z,0.19
2023-01-21T00:19:44.876Z,0.25
2023-01-21T00:22:13.546Z,0.34
2023-01-21T00:24:42.182Z,0.34
2023-01-21T00:27:10.791Z,0.29
2023-01-21T00:29:41.117Z,0.34
2023-01-21T00:32:09.743Z,0.34
2023-01-21T00:34:38.433Z,0.43
2023-01-21T00:37:07.984Z,0.43
2023-01-21T00:39:36.723Z,0.53
2023-01-21T00:42:05.580Z,0.54
2023-01-21T00:44:34.222Z,0.55
2023-01-21T00:47:04.221Z,0.67
2023-01-21T00:49:32.944Z,0.62
2023-01-21T00:52:01.821Z,0.65
2023-01-21T00:54:32.324Z,0.74
2023-01-21T00:57:01.250Z,0.64
2023-01-21T00:59:30.198Z,0.69
2023-01-21T01:01:59.073Z,0.67
2023-01-21T01:04:29.883Z,0.59
2023-01-21T01:06:58.762Z,0.70
2023-01-21T01:09:27.470Z,0.78
2023-01-21T01:11:56.599Z,0.69
2023-01-21T01:14:25.907Z,0.61
2023-01-21T01:16:54.739Z,0.69
2023-01-21T01:19:23.404Z,0.69
2023-01-21T01:21:53.577Z,0.65
2023-01-21T01:24:22.293Z,0.59
2023-01-21T01:26:50.910Z,0.70
2023-01-21T01:29:19.562Z,0.57
2023-01-21T01:31:48.250Z,0.67
2023-01-21T01:34:16.944Z,0.57
2023-01-21T01:36:45.662Z,0.66
2023-01-21T01:39:15.702Z,0.60
2023-01-21T01:41:44.487Z,0.60
2023-01-21T01:44:56.961Z,0.71
2023-01-21T01:47:33.650Z,0.66
2023-01-21T01:50:05.658Z,0.66
2023-01-21T01:52:34.927Z,0.72
2023-01-21T01:55:06.813Z,0.72
2023-01-21T01:57:41.577Z,0.73
2023-01-21T02:00:13.717Z,0.83
2023-01-21T02:03:04.686Z,0.79
2023-01-21T02:05:35.260Z,0.82
2023-01-21T02:08:04.422Z,0.81
2023-01-21T02:10:34.957Z,0.79
2023-01-21T02:13:05.492Z,0.95
2023-01-21T02:15:46.432Z,0.88
2023-01-21T02:18:27.561Z,1.03
2023-01-21T02:21:44.836Z,0.76
2023-01-21T02:25:02.137Z,0.88
2023-01-21T02:27:48.798Z,0.90
2023-01-21T02:31:02.735Z,0.96
2023-01-21T02:34:08.787Z,0.79
2023-01-21T02:36:52.490Z,0.79
2023-01-21T02:39:41.184Z,0.73
2023-01-21T02:42:23.199Z,0.69
2023-01-21T02:45:03.847Z,0.64
2023-01-21T02:47:41.654Z,0.55
2023-01-21T02:50:19.530Z,0.52
2023-01-21T02:52:57.051Z,0.60
2023-01-21T02:55:31.425Z,0.52
2023-01-21T02:58:05.302Z,0.53
2023-01-21T03:00:52.114Z,0.40
2023-01-21T03:03:41.503Z,0.50
2023-01-21T03:06:39.444Z,0.38
2023-01-21T03:09:22.560Z,0.18
2023-01-21T03:12:09.054Z,0.14
2023-01-21T03:15:03.154Z,0.18
2023-01-21T03:17:42.728Z,0.18
2023-01-21T03:20:20.259Z,0.06
2023-01-21T03:22:57.206Z,0.10
2023-01-21T03:25:28.667Z,-0.03
2023-01-21T03:27:59.212Z,0.03
2023-01-21T03:30:32.956Z,0.02
2023-01-21T03:33:04.382Z,-0.06
2023-01-21T03:35:42.138Z,0.11
2023-01-21T03:38:20.560Z,-0.01
2023-01-21T03:40:54.847Z,0.02
2023-01-21T03:43:23.894Z,-0.01
2023-01-21T03:46:04.522Z,-0.08
2023-01-21T03:48:42.048Z,0.04
2023-01-21T03:51:16.887Z,0.01
2023-01-21T03:53:52.543Z,-0.08
2023-01-21T03:56:21.237Z,0.01
2023-01-21T03:58:49.830Z,-0.06
2023-01-21T04:01:18.541Z,-0.11
2023-01-21T04:03:47.339Z,0.03
2023-01-21T04:06:18.898Z,-0.03
2023-01-21T04:08:49.244Z,-0.08
2023-01-21T04:11:18.741Z,-0.06
2023-01-21T04:13:47.380Z,-0.10
2023-01-21T04:16:16.140Z,0.00
2023-01-21T04:18:45.225Z,-0.07
2023-01-21T04:21:13.908Z,-0.03
2023-01-21T04:23:42.949Z,0.01
2023-01-21T04:26:13.099Z,0.01
2023-01-21T04:28:42.205Z,-0.15
2023-01-21T04:31:10.942Z,-0.14
2023-01-21T04:33:39.755Z,-0.13
2023-01-21T04:36:08.755Z,-0.07
2023-01-21T04:38:37.662Z,-0.14
2023-01-21T04:41:06.844Z,-0.22
2023-01-21T04:43:37.035Z,-0.16
2023-01-21T04:46:06.110Z,-0.16
2023-01-21T04:48:34.924Z,-0.19
2023-01-21T04:51:03.595Z,-0.13
2023-01-21T04:53:32.339Z,-0.29
2023-01-21T04:56:01.163Z,-0.22
2023-01-21T04:58:30.611Z,-0.26
2023-01-21T05:01:00.805Z,-0.36
2023-01-21T05:03:29.577Z,-0.35
2023-01-21T05:05:58.255Z,-0.32
2023-01-21T05:08:26.931Z,-0.31
2023-01-21T05:10:55.791Z,-0.49
2023-01-21T05:13:24.668Z,-0.72
2023-01-21T05:15:54.174Z,-0.70
2023-01-21T05:18:24.572Z,-0.82
2023-01-21T05:20:53.495Z,-0.85
2023-01-21T05:23:22.257Z,-1.03
2023-01-21T05:25:52.817Z,-1.04
2023-01-21T05:28:22.879Z,-1.09
2023-01-21T05:30:51.580Z,-1.20
2023-01-21T05:33:26.366Z,-1.16
2023-01-21T05:35:56.580Z,-1.25
2023-01-21T05:38:25.412Z,-1.15
2023-01-21T05:40:59.256Z,-1.31
2023-01-21T05:43:28.262Z,-1.28
2023-01-21T05:45:57.378Z,-1.36
2023-01-21T05:48:29.157Z,-1.27
2023-01-21T05:50:59.687Z,-1.34
2023-01-21T05:53:28.898Z,-1.42
2023-01-21T05:55:58.995Z,-1.43
2023-01-21T05:58:28.353Z,-1.44
2023-01-21T06:00:59.287Z,-1.50
2023-01-21T06:03:29.385Z,-1.47
2023-01-21T06:05:59.576Z,-1.55
2023-01-21T06:08:28.323Z,-1.49
2023-01-21T06:10:57.355Z,-1.50
2023-01-21T06:13:26.254Z,-1.58
2023-01-21T06:15:57.090Z,-1.55
2023-01-21T06:18:26.250Z,-1.58
2023-01-21T06:20:55.943Z,-1.64
2023-01-21T06:23:26.072Z,-1.66
2023-01-21T06:25:54.760Z,-1.75
2023-01-21T06:28:26.479Z,-1.69
2023-01-21T06:30:57.965Z,-1.78
2023-01-21T06:33:27.899Z,-1.81
2023-01-21T06:35:56.650Z,-1.92
2023-01-21T06:38:30.295Z,-1.91
2023-01-21T06:41:00.585Z,-1.83
2023-01-21T06:43:31.995Z,-1.74
2023-01-21T06:46:02.351Z,-1.68
2023-01-21T06:48:31.387Z,-1.67
2023-01-21T06:51:02.158Z,-1.66
2023-01-21T06:53:32.375Z,-1.77
2023-01-21T06:56:04.881Z,-1.82
2023-01-21T06:58:38.657Z,-1.86
2023-01-21T07:01:07.383Z,-1.93
2023-01-21T07:03:35.971Z,-2.02
2023-01-21T07:06:06.033Z,-1.99
2023-01-21T07:08:36.098Z,-1.94
2023-01-21T07:11:05.013Z,-2.02
2023-01-21T07:13:33.609Z,-2.00
2023-01-21T07:16:05.951Z,-2.00
2023-01-21T07:18:35.826Z,-1.94
2023-01-21T07:21:04.765Z,-1.98
2023-01-21T07:23:33.430Z,-1.99
2023-01-21T07:26:03.817Z,-1.89
2023-01-21T07:28:32.561Z,-1.87
2023-01-21T07:31:01.771Z,-1.91
2023-01-21T07:33:31.119Z,-1.81
2023-01-21T07:36:00.037Z,-1.90
2023-01-21T07:38:28.655Z,-1.90
2023-01-21T07:41:07.500Z,-1.78
2023-01-21T07:43:36.257Z,-1.84
2023-01-21T07:46:05.290Z,-1.78
2023-01-21T07:48:34.211Z,-1.74
2023-01-21T07:51:03.137Z,-1.84
2023-01-21T07:53:31.898Z,-1.73
2023-01-21T07:56:06.555Z,-1.74
2023-01-21T07:58:35.525Z,-1.77
2023-01-21T08:01:08.127Z,-1.71
2023-01-21T08:03:37.324Z,-1.70
2023-01-21T08:06:07.667Z,-1.58
2023-01-21T08:08:36.725Z,-1.57
2023-01-21T08:11:07.072Z,-1.61
2023-01-21T08:13:35.744Z,-1.64
2023-01-21T08:16:04.701Z,-1.64
2023-01-21T08:18:33.577Z,-1.62
2023-01-21T08:21:02.236Z,-1.60
2023-01-21T08:23:31.036Z,-1.51
2023-01-21T08:26:04.144Z,-1.48
2023-01-21T08:28:34.829Z,-1.49
2023-01-21T08:31:09.157Z,-1.45
2023-01-21T08:33:38.113Z,-1.47
2023-01-21T08:36:09.459Z,-1.43
2023-01-21T08:38:38.567Z,-1.47
2023-01-21T08:41:07.734Z,-1.45
2023-01-21T08:43:38.114Z,-1.56
2023-01-21T08:46:07.240Z,-1.50
2023-01-21T08:48:35.985Z,-1.51
2023-01-21T08:51:05.013Z,-1.52
2023-01-21T08:53:33.728Z,-1.38
2023-01-21T08:56:04.780Z,-1.48
2023-01-21T08:58:34.337Z,-1.39
2023-01-21T09:01:11.531Z,-1.39
2023-01-21T09:03:40.257Z,-1.33
2023-01-21T09:06:10.006Z,-1.48
2023-01-21T09:08:39.426Z,-1.44
2023-01-21T09:11:09.275Z,-1.28
2023-01-21T09:13:41.123Z,-1.36
2023-01-21T09:16:12.869Z,-1.27
2023-01-21T09:18:42.140Z,-1.16
2023-01-21T09:21:12.521Z,-1.27
2023-01-21T09:23:42.320Z,-1.22
2023-01-21T09:26:17.569Z,-1.30
2023-01-21T09:28:48.769Z,-1.22
2023-01-21T09:31:21.677Z,-1.18
2023-01-21T09:33:54.238Z,-1.03
2023-01-21T09:36:26.799Z,-1.13
2023-01-21T09:38:56.104Z,-1.04
2023-01-21T09:41:29.815Z,-0.97
2023-01-21T09:44:17.252Z,-0.95
2023-01-21T09:46:56.148Z,-0.92
2023-01-21T09:49:31.069Z,-0.94
2023-01-21T09:52:10.087Z,-0.77
2023-01-21T09:54:41.015Z,-0.81
2023-01-21T09:57:50.598Z,-0.75
2023-01-21T10:00:34.912Z,-0.77
2023-01-21T10:03:19.623Z,-0.63
2023-01-21T10:06:24.430Z,-0.71
2023-01-21T10:09:39.630Z,-0.64
2023-01-21T10:12:36.855Z,-0.63
2023-01-21T10:15:38.030Z,-0.55
2023-01-21T10:18:13.985Z,-0.46
2023-01-21T10:20:50.715Z,-0.50
2023-01-21T10:23:28.747Z,-0.40
2023-01-21T10:26:02.857Z,-0.28
2023-01-21T10:28:32.319Z,-0.34
2023-01-21T10:31:09.194Z,-0.29
2023-01-21T10:33:39.514Z,-0.26
2023-01-21T10:36:48.763Z,-0.27
2023-01-21T10:39:33.557Z,-0.26
2023-01-21T10:42:19.325Z,-0.16
2023-01-21T10:45:01.388Z,-0.17
2023-01-21T10:47:42.311Z,-0.13
2023-01-21T10:50:33.085Z,-0.09
2023-01-21T10:53:13.404Z,0.00
2023-01-21T10:55:58.036Z,0.00
2023-01-21T10:58:33.770Z,0.06
2023-01-21T11:01:09.047Z,0.03
2023-01-21T11:03:44.784Z,0.12
2023-01-21T11:06:19.266Z,0.15
2023-01-21T11:08:53.770Z,0.11
2023-01-21T11:11:28.473Z,0.13
2023-01-21T11:13:57.718Z,0.14
2023-01-21T11:16:49.401Z,0.24
2023-01-21T11:19:24.241Z,0.16
2023-01-21T11:22:04.366Z,0.22
2023-01-21T11:24:43.882Z,0.27
2023-01-21T11:27:23.004Z,0.27
2023-01-21T11:29:52.126Z,0.29
2023-01-21T11:32:24.547Z,0.33
2023-01-21T11:35:02.413Z,0.37
2023-01-21T11:37:35.668Z,0.28
2023-01-21T11:40:12.954Z,0.35
2023-01-21T11:42:49.766Z,0.36
2023-01-21T11:45:30.392Z,0.40
2023-01-21T11:48:00.311Z,0.54
2023-01-21T11:50:32.089Z,0.43
2023-01-21T11:53:17.828Z,0.40
2023-01-21T11:55:50.920Z,0.49
2023-01-21T11:58:23.373Z,0.44
2023-01-21T12:00:57.018Z,0.29
2023-01-21T12:03:32.036Z,0.36
2023-01-21T12:06:01.949Z,0.45
2023-01-21T12:08:36.376Z,0.38
2023-01-21T12:11:08.764Z,0.52
2023-01-21T12:13:50.877Z,0.59
2023-01-21T12:16:39.851Z,0.51
2023-01-21T12:19:44.720Z,0.60
2023-01-21T12:22:36.694Z,0.56
2023-01-21T12:25:26.463Z,0.63
2023-01-21T12:28:38.372Z,0.60
2023-01-21T12:31:23.792Z,0.63
2023-01-21T12:34:01.543Z,0.62
2023-01-21T12:36:35.473Z,0.65
2023-01-21T12:39:19.746Z,0.60
2023-01-21T12:42:03.542Z,0.56
2023-01-21T12:44:40.312Z,0.57
2023-01-21T12:47:23.035Z,0.50
2023-01-21T12:50:11.908Z,0.60
2023-01-21T12:52:55.943Z,0.62
2023-01-21T12:55:32.709Z,0.45
2023-01-21T12:58:09.437Z,0.49
2023-01-21T13:00:44.444Z,0.51
2023-01-21T13:03:26.693Z,0.38
2023-01-21T13:06:03.690Z,0.35
2023-01-21T13:08:48.122Z,0.31
2023-01-21T13:11:22.265Z,0.32
2023-01-21T13:14:04.297Z,0.27
2023-01-21T13:16:38.273Z,0.27
2023-01-21T13:19:07.281Z,0.26
2023-01-21T13:21:44.252Z,0.14
2023-01-21T13:24:22.171Z,0.11
2023-01-21T13:27:05.269Z,-0.02
2023-01-21T13:29:48.632Z,-0.03
2023-01-21T13:32:36.554Z,-0.13
2023-01-21T13:35:33.095Z,-0.26
2023-01-21T13:38:20.903Z,-0.37
2023-01-21T13:40:59.537Z,-0.38
2023-01-21T13:44:01.643Z,-0.52
2023-01-21T13:46:55.309Z,-0.56
2023-01-21T13:49:53.670Z,-0.66
2023-01-21T13:52:29.418Z,-0.73
2023-01-21T13:55:24.708Z,-0.76
2023-01-21T13:58:07.610Z,-0.86
2023-01-21T14:00:42.081Z,-0.88
2023-01-21T14:03:26.839Z,-0.92
2023-01-21T14:06:04.953Z,-0.95
2023-01-21T14:08:44.373Z,-1.10
2023-01-21T14:11:40.327Z,-1.05
2023-01-21T14:15:02.481Z,-1.16
2023-01-21T14:18:28.449Z,-1.32
2023-01-21T14:21:44.907Z,-1.27
2023-01-21T14:24:44.116Z,-1.30
2023-01-21T14:27:33.890Z,-1.32
2023-01-21T14:30:33.682Z,-1.41
2023-01-21T14:33:13.421Z,-1.38
2023-01-21T14:35:54.772Z,-1.39
2023-01-21T14:38:38.201Z,-1.33
2023-01-21T14:41:09.907Z,-1.52
2023-01-21T14:43:51.896Z,-1.49
2023-01-21T14:46:32.901Z,-1.55
2023-01-21T14:49:08.957Z,-1.57
2023-01-21T14:51:45.673Z,-1.52
2023-01-21T14:54:19.445Z,-1.51
2023-01-21T14:56:55.954Z,-1.48
2023-01-21T14:59:35.900Z,-1.43
2023-01-21T15:02:30.633Z,-1.48
2023-01-21T15:05:03.078Z,-1.52
2023-01-21T15:07:40.624Z,-1.43
2023-01-21T15:10:19.324Z,-1.46
2023-01-21T15:12:58.002Z,-1.49
2023-01-21T15:15:35.102Z,-1.51
2023-01-21T15:18:27.671Z,-1.63
2023-01-21T15:20:59.027Z,-1.74
2023-01-21T15:23:40.701Z,-1.75
2023-01-21T15:26:35.978Z,-1.78
2023-01-21T15:29:47.473Z,-1.83
2023-01-21T15:32:40.636Z,-1.87
2023-01-21T15:35:31.063Z,-1.91
2023-01-21T15:38:10.647Z,-1.91
2023-01-21T15:40:49.497Z,-1.85
2023-01-21T15:43:38.620Z,-1.90
2023-01-21T15:46:30.307Z,-1.90
2023-01-21T15:49:21.958Z,-1.97
2023-01-21T15:52:09.956Z,-1.92
2023-01-21T15:54:55.372Z,-1.93
2023-01-21T15:57:48.664Z,-1.96
2023-01-21T16:00:35.102Z,-2.03
2023-01-21T16:03:28.777Z,-2.05
2023-01-21T16:06:08.808Z,-2.07
2023-01-21T16:09:03.082Z,-2.07
2023-01-21T16:12:09.022Z,-2.16
2023-01-21T16:15:00.018Z,-2.20
2023-01-21T16:17:51.581Z,-2.29
2023-01-21T16:20:22.601Z,-2.25
2023-01-21T16:22:58.807Z,-2.30
2023-01-21T16:25:28.424Z,-2.15
2023-01-21T16:27:57.501Z,-2.22
2023-01-21T16:30:32.468Z,-2.13
2023-01-21T16:33:22.590Z,-2.23
2023-01-21T16:35:54.503Z,-2.22
2023-01-21T16:38:26.989Z,-2.25
2023-01-21T16:41:24.934Z,-2.21
2023-01-21T16:43:59.300Z,-2.32
2023-01-21T16:46:34.778Z,-2.29
2023-01-21T16:49:05.887Z,-2.32
2023-01-21T16:51:37.720Z,-2.27
2023-01-21T16:54:32.029Z,-2.30
2023-01-21T16:57:02.952Z,-2.22
2023-01-21T16:59:41.021Z,-2.26
2023-01-21T17:02:22.585Z,-2.27
2023-01-21T17:04:52.871Z,-2.34
2023-01-21T17:07:30.047Z,-2.31
2023-01-21T17:10:08.879Z,-2.27
2023-01-21T17:12:48.281Z,-2.24
2023-01-21T17:15:25.673Z,-2.12
2023-01-21T17:17:59.676Z,-2.17
2023-01-21T17:20:45.788Z,-2.13
2023-01-21T17:23:22.023Z,-2.23
2023-01-21T17:25:59.324Z,-2.38
2023-01-21T17:28:38.647Z,-2.45
2023-01-21T17:31:24.400Z,-2.41
2023-01-21T17:34:08.357Z,-2.54
2023-01-21T17:36:39.800Z,-2.50
2023-01-21T17:39:11.453Z,-2.48
2023-01-21T17:41:45.464Z,-2.50
2023-01-21T17:44:23.055Z,-2.53
2023-01-21T17:50:08.427Z,-2.86
2023-01-21T17:52:41.803Z,-2.93
2023-01-21T17:55:15.452Z,-3.06
2023-01-21T17:57:46.927Z,-2.99
2023-01-21T18:00:38.970Z,-2.95
2023-01-21T18:03:37.714Z,-2.92
2023-01-21T18:06:42.979Z,-2.95
2023-01-21T18:09:21.959Z,-2.95
2023-01-21T18:11:56.321Z,-2.99
2023-01-21T18:14:29.456Z,-3.05
2023-01-21T18:17:08.831Z,-3.06
2023-01-21T18:19:46.439Z,-3.05
2023-01-21T18:22:25.334Z,-3.10
2023-01-21T18:24:55.635Z,-3.15
2023-01-21T18:27:32.951Z,-3.20
2023-01-21T18:30:08.405Z,-3.17
2023-01-21T18:32:41.148Z,-3.24
2023-01-21T18:35:11.712Z,-3.37
2023-01-21T18:37:44.838Z,-3.40
2023-01-21T18:40:18.031Z,-3.51
2023-01-21T18:42:47.834Z,-3.48
2023-01-21T18:45:21.359Z,-3.49
2023-01-21T18:47:53.277Z,-3.48
2023-01-21T18:50:25.373Z,-3.48
2023-01-21T18:52:56.996Z,-3.45
2023-01-21T18:55:30.557Z,-3.42
2023-01-21T18:57:59.709Z,-3.49
2023-01-21T19:00:31.681Z,-3.52
2023-01-21T19:03:02.160Z,-3.59
2023-01-21T19:05:37.260Z,-3.67
2023-01-21T19:08:15.918Z,-3.75
2023-01-21T19:10:45.317Z,-3.83
2023-01-21T19:13:14.575Z,-3.83
2023-01-21T19:15:47.722Z,-3.83
2023-01-21T19:18:20.971Z,-3.83
2023-01-21T19:20:52.923Z,-3.83
2023-01-21T19:23:23.684Z,-3.83
2023-01-21T19:25:57.071Z,-3.86
2023-01-21T19:28:28.048Z,-3.83
2023-01-21T19:30:58.527Z,-3.82
2023-01-21T19:33:27.532Z,-3.88
2023-01-21T19:36:03.616Z,-3.89
2023-01-21T19:38:33.880Z,-3.84
2023-01-21T19:41:04.051Z,-3.86
2023-01-21T19:43:33.050Z,-3.90
2023-01-21T19:46:01.751Z,-3.94
2023-01-21T19:48:30.785Z,-4.03
2023-01-21T19:50:59.559Z,-4.08
2023-01-21T19:53:28.361Z,-4.18
2023-01-21T19:55:59.765Z,-4.13
2023-01-21T19:58:32.918Z,-4.07
2023-01-21T20:01:02.056Z,-3.98
2023-01-21T20:03:31.357Z,-3.94
2023-01-21T20:06:03.573Z,-3.89
2023-01-21T20:08:34.128Z,-3.78
2023-01-21T20:11:05.077Z,-3.67
2023-01-21T20:13:37.730Z,-3.49
2023-01-21T20:16:17.063Z,-3.34
2023-01-21T20:18:48.373Z,-3.23
2023-01-21T20:21:19.200Z,-3.32
2023-01-21T20:23:48.186Z,-3.35
2023-01-21T20:26:26.605Z,-3.25
2023-01-21T20:28:55.846Z,-3.20
2023-01-21T20:31:24.965Z,-3.14
2023-01-21T20:33:54.024Z,-3.05
2023-01-21T20:36:26.953Z,-2.99
2023-01-21T20:38:56.981Z,-2.88
2023-01-21T20:41:27.305Z,-2.90
2023-01-21T20:43:56.059Z,-2.89
2023-01-21T20:46:29.508Z,-2.93
2023-01-21T20:48:59.108Z,-2.96
2023-01-21T20:51:27.807Z,-2.94
2023-01-21T20:53:56.880Z,-2.92
2023-01-21T20:56:31.933Z,-2.97
2023-01-21T20:59:05.440Z,-3.01
2023-01-21T21:01:39.520Z,-3.01
2023-01-21T21:04:08.203Z,-2.99
2023-01-21T21:06:37.040Z,-2.99
2023-01-21T21:09:06.295Z,-3.03
2023-01-21T21:11:36.392Z,-3.01
2023-01-21T21:14:06.694Z,-2.88
2023-01-21T21:16:35.807Z,-2.79
2023-01-21T21:19:04.865Z,-2.71
2023-01-21T21:21:33.516Z,-2.69
2023-01-21T21:24:06.633Z,-2.64
2023-01-21T21:26:38.118Z,-2.54
2023-01-21T21:29:14.134Z,-2.60
2023-01-21T21:31:43.126Z,-2.60
2023-01-21T21:34:11.904Z,-2.59
2023-01-21T21:36:43.442Z,-2.67
2023-01-21T21:39:19.192Z,-2.62
2023-01-21T21:42:06.525Z,-2.59
2023-01-21T21:44:36.276Z,-2.53
2023-01-21T21:47:21.708Z,-2.62
2023-01-21T21:49:51.132Z,-2.55
2023-01-21T21:52:20.250Z,-2.45
2023-01-21T21:54:49.117Z,-2.33
2023-01-21T21:57:19.249Z,-2.27
2023-01-21T21:59:48.018Z,-2.25
2023-01-21T22:02:16.680Z,-2.13
2023-01-21T22:04:45.363Z,-2.10
2023-01-21T22:07:32.935Z,-2.09
2023-01-21T22:10:02.049Z,-1.95
2023-01-21T22:12:33.480Z,-1.88
2023-01-21T22:15:02.205Z,-1.87
2023-01-21T22:17:32.324Z,-1.78
2023-01-21T22:20:01.085Z,-1.78
2023-01-21T22:22:30.556Z,-1.65
2023-01-21T22:24:59.163Z,-1.54
2023-01-21T22:27:28.154Z,-1.57
2023-01-21T22:30:00.060Z,-1.57
2023-01-21T22:32:31.973Z,-1.46
2023-01-21T22:35:02.296Z,-1.43
2023-01-21T22:37:31.878Z,-1.39
2023-01-21T22:40:00.894Z,-1.41
2023-01-21T22:42:29.679Z,-1.46
2023-01-21T22:44:59.702Z,-1.31
2023-01-21T22:47:28.705Z,-1.31
2023-01-21T22:49:57.858Z,-1.30
2023-01-21T22:52:26.758Z,-1.27
2023-01-21T22:54:56.570Z,-1.18
2023-01-21T22:57:25.384Z,-1.17
2023-01-21T22:59:54.072Z,-1.15
2023-01-21T23:02:25.514Z,-1.13
2023-01-21T23:04:54.155Z,-1.09
2023-01-21T23:07:22.855Z,-1.01
2023-01-21T23:09:51.532Z,-1.04
2023-01-21T23:12:20.173Z,-1.11
2023-01-21T23:14:49.699Z,-1.13
2023-01-21T23:17:18.423Z,-1.12
2023-01-21T23:19:48.399Z,-1.20
2023-01-21T23:22:16.977Z,-1.11
2023-01-21T23:24:45.623Z,-1.09
2023-01-21T23:27:14.321Z,-1.12
2023-01-21T23:29:43.007Z,-1.21
2023-01-21T23:32:11.693Z,-1.17
2023-01-21T23:34:40.443Z,-1.16
2023-01-21T23:37:10.501Z,-1.23
2023-01-21T23:39:39.395Z,-1.22
2023-01-21T23:42:08.337Z,-1.15
2023-01-21T23:44:37.225Z,-1.28
2023-01-21T23:47:05.972Z,-1.27
2023-01-21T23:49:35.958Z,-1.24
2023-01-21T23:52:05.839Z,-1.23
2023-01-21T23:54:36.366Z,-1.22
2023-01-21T23:57:05.197Z,-1.28
2023-01-21T23:59:34.007Z,-1.22
